sensor_id;sensor_type;location;lat;lon;timestamp;P1;durP1;ratioP1;P2;durP2;ratioP2
6505;SDS011;3286;49.858;8.768;2022-09-29T00:00:30;4.53;;;2.23;;
6505;SDS011;3286;49.858;8.768;2022-09-29T00:02:56;4.50;;;2.50;;
6505;SDS011;3286;49.858;8.768;2022-09-29T00:05:23;4.17;;;2.20;;
6505;SDS011;3286;49.858;8.768;2022-09-29T00:07:50;4.97;;;2.10;;
6505;SDS011;3286;49.858;8.768;2022-09-29T00:10:16;4.57;;;2.43;;
6505;SDS011;3286;49.858;8.768;2022-09-29T00:12:43;3.40;;;2.40;;
6505;SDS011;3286;49.858;8.768;2022-09-29T00:15:12;5.57;;;2.20;;
6505;SDS011;3286;49.858;8.768;2022-09-29T00:17:39;7.00;;;2.93;;
6505;SDS011;3286;49.858;8.768;2022-09-29T00:20:08;12.20;;;3.40;;
6505;SDS011;3286;49.858;8.768;2022-09-29T00:22:35;5.50;;;3.27;;
6505;SDS011;3286;49.858;8.768;2022-09-29T00:25:09;7.23;;;3.30;;
6505;SDS011;3286;49.858;8.768;2022-09-29T00:27:37;5.83;;;3.67;;
6505;SDS011;3286;49.858;8.768;2022-09-29T00:30:04;5.23;;;2.93;;
6505;SDS011;3286;49.858;8.768;2022-09-29T00:32:35;5.27;;;2.90;;
6505;SDS011;3286;49.858;8.768;2022-09-29T00:35:03;7.10;;;2.80;;
6505;SDS011;3286;49.858;8.768;2022-09-29T00:37:35;5.67;;;3.13;;
6505;SDS011;3286;49.858;8.768;2022-09-29T00:40:02;5.93;;;3.20;;
6505;SDS011;3286;49.858;8.768;2022-09-29T00:42:30;6.77;;;3.43;;
6505;SDS011;3286;49.858;8.768;2022-09-29T00:45:13;4.67;;;3.17;;
6505;SDS011;3286;49.858;8.768;2022-09-29T00:47:44;6.17;;;2.80;;
6505;SDS011;3286;49.858;8.768;2022-09-29T00:50:29;3.27;;;2.40;;
6505;SDS011;3286;49.858;8.768;2022-09-29T00:53:08;4.13;;;2.73;;
6505;SDS011;3286;49.858;8.768;2022-09-29T00:55:37;4.50;;;2.70;;
6505;SDS011;3286;49.858;8.768;2022-09-29T00:58:09;7.27;;;2.90;;
6505;SDS011;3286;49.858;8.768;2022-09-29T01:00:44;10.27;;;2.97;;
6505;SDS011;3286;49.858;8.768;2022-09-29T01:03:18;3.90;;;2.70;;
6505;SDS011;3286;49.858;8.768;2022-09-29T01:05:49;10.93;;;3.03;;
6505;SDS011;3286;49.858;8.768;2022-09-29T01:08:19;4.77;;;2.80;;
6505;SDS011;3286;49.858;8.768;2022-09-29T01:10:54;11.70;;;3.23;;
6505;SDS011;3286;49.858;8.768;2022-09-29T01:13:22;4.67;;;2.63;;
6505;SDS011;3286;49.858;8.768;2022-09-29T01:15:54;4.03;;;3.10;;
6505;SDS011;3286;49.858;8.768;2022-09-29T01:18:26;6.83;;;2.70;;
6505;SDS011;3286;49.858;8.768;2022-09-29T01:20:55;6.17;;;2.90;;
6505;SDS011;3286;49.858;8.768;2022-09-29T01:23:44;5.00;;;3.00;;
6505;SDS011;3286;49.858;8.768;2022-09-29T01:35:47;4.53;;;2.87;;
6505;SDS011;3286;49.858;8.768;2022-09-29T01:38:26;6.30;;;3.13;;
6505;SDS011;3286;49.858;8.768;2022-09-29T01:41:09;4.27;;;2.80;;
6505;SDS011;3286;49.858;8.768;2022-09-29T01:43:48;7.23;;;2.60;;
6505;SDS011;3286;49.858;8.768;2022-09-29T01:46:21;3.27;;;2.70;;
6505;SDS011;3286;49.858;8.768;2022-09-29T01:49:14;4.33;;;2.67;;
6505;SDS011;3286;49.858;8.768;2022-09-29T01:51:49;5.00;;;2.63;;
6505;SDS011;3286;49.858;8.768;2022-09-29T01:54:21;6.97;;;2.97;;
6505;SDS011;3286;49.858;8.768;2022-09-29T01:56:57;3.80;;;2.60;;
6505;SDS011;3286;49.858;8.768;2022-09-29T01:59:29;6.37;;;2.97;;
6505;SDS011;3286;49.858;8.768;2022-09-29T02:02:02;6.63;;;3.00;;
6505;SDS011;3286;49.858;8.768;2022-09-29T02:04:41;4.07;;;2.93;;
6505;SDS011;3286;49.858;8.768;2022-09-29T02:07:15;4.57;;;2.70;;
6505;SDS011;3286;49.858;8.768;2022-09-29T02:09:48;5.20;;;3.10;;
6505;SDS011;3286;49.858;8.768;2022-09-29T02:12:24;5.90;;;3.10;;
6505;SDS011;3286;49.858;8.768;2022-09-29T02:14:55;3.27;;;2.60;;
6505;SDS011;3286;49.858;8.768;2022-09-29T02:17:24;5.13;;;2.73;;
6505;SDS011;3286;49.858;8.768;2022-09-29T02:19:56;3.30;;;2.70;;
6505;SDS011;3286;49.858;8.768;2022-09-29T02:22:23;3.63;;;2.73;;
6505;SDS011;3286;49.858;8.768;2022-09-29T02:24:51;3.13;;;2.80;;
6505;SDS011;3286;49.858;8.768;2022-09-29T02:27:23;5.20;;;2.80;;
6505;SDS011;3286;49.858;8.768;2022-09-29T02:29:54;5.13;;;2.80;;
6505;SDS011;3286;49.858;8.768;2022-09-29T02:32:22;5.00;;;2.73;;
6505;SDS011;3286;49.858;8.768;2022-09-29T02:34:49;5.23;;;2.90;;
6505;SDS011;3286;49.858;8.768;2022-09-29T02:37:24;4.00;;;3.00;;
6505;SDS011;3286;49.858;8.768;2022-09-29T02:40:09;7.50;;;2.97;;
6505;SDS011;3286;49.858;8.768;2022-09-29T02:42:52;4.87;;;3.17;;
6505;SDS011;3286;49.858;8.768;2022-09-29T02:45:34;6.07;;;3.80;;
6505;SDS011;3286;49.858;8.768;2022-09-29T02:48:12;5.10;;;2.83;;
6505;SDS011;3286;49.858;8.768;2022-09-29T02:51:01;3.30;;;2.70;;
6505;SDS011;3286;49.858;8.768;2022-09-29T02:53:44;4.23;;;3.03;;
6505;SDS011;3286;49.858;8.768;2022-09-29T02:56:20;3.80;;;2.70;;
6505;SDS011;3286;49.858;8.768;2022-09-29T02:58:56;6.37;;;2.90;;
6505;SDS011;3286;49.858;8.768;2022-09-29T03:01:29;4.13;;;3.00;;
6505;SDS011;3286;49.858;8.768;2022-09-29T03:03:56;4.10;;;2.90;;
6505;SDS011;3286;49.858;8.768;2022-09-29T03:06:23;7.57;;;3.27;;
6505;SDS011;3286;49.858;8.768;2022-09-29T03:08:51;6.27;;;2.90;;
6505;SDS011;3286;49.858;8.768;2022-09-29T03:11:19;4.90;;;2.60;;
6505;SDS011;3286;49.858;8.768;2022-09-29T03:13:45;4.60;;;2.47;;
6505;SDS011;3286;49.858;8.768;2022-09-29T03:16:12;8.03;;;2.93;;
6505;SDS011;3286;49.858;8.768;2022-09-29T03:18:41;6.57;;;3.40;;
6505;SDS011;3286;49.858;8.768;2022-09-29T03:21:10;4.40;;;2.80;;
6505;SDS011;3286;49.858;8.768;2022-09-29T03:23:37;8.47;;;3.30;;
6505;SDS011;3286;49.858;8.768;2022-09-29T03:26:05;7.43;;;3.23;;
6505;SDS011;3286;49.858;8.768;2022-09-29T03:28:32;4.43;;;3.27;;
6505;SDS011;3286;49.858;8.768;2022-09-29T03:31:05;4.77;;;3.20;;
6505;SDS011;3286;49.858;8.768;2022-09-29T03:33:35;5.07;;;3.13;;
6505;SDS011;3286;49.858;8.768;2022-09-29T03:36:07;5.57;;;3.33;;
6505;SDS011;3286;49.858;8.768;2022-09-29T03:38:35;4.80;;;3.10;;
6505;SDS011;3286;49.858;8.768;2022-09-29T03:41:03;6.23;;;3.10;;
6505;SDS011;3286;49.858;8.768;2022-09-29T03:43:31;5.00;;;3.57;;
6505;SDS011;3286;49.858;8.768;2022-09-29T03:45:58;3.80;;;2.73;;
6505;SDS011;3286;49.858;8.768;2022-09-29T03:48:24;8.60;;;3.70;;
6505;SDS011;3286;49.858;8.768;2022-09-29T03:50:55;6.70;;;3.50;;
6505;SDS011;3286;49.858;8.768;2022-09-29T03:53:23;4.10;;;2.97;;
6505;SDS011;3286;49.858;8.768;2022-09-29T03:55:50;4.47;;;3.20;;
6505;SDS011;3286;49.858;8.768;2022-09-29T03:58:17;4.33;;;3.13;;
6505;SDS011;3286;49.858;8.768;2022-09-29T04:00:46;4.73;;;3.20;;
6505;SDS011;3286;49.858;8.768;2022-09-29T04:03:14;8.67;;;4.73;;
6505;SDS011;3286;49.858;8.768;2022-09-29T04:05:43;9.93;;;3.80;;
6505;SDS011;3286;49.858;8.768;2022-09-29T04:08:11;8.53;;;3.60;;
6505;SDS011;3286;49.858;8.768;2022-09-29T04:10:37;4.83;;;3.10;;
6505;SDS011;3286;49.858;8.768;2022-09-29T04:13:05;7.47;;;3.63;;
6505;SDS011;3286;49.858;8.768;2022-09-29T04:15:34;5.57;;;3.73;;
6505;SDS011;3286;49.858;8.768;2022-09-29T04:18:02;5.03;;;3.20;;
6505;SDS011;3286;49.858;8.768;2022-09-29T04:20:30;5.03;;;3.03;;
6505;SDS011;3286;49.858;8.768;2022-09-29T04:23:13;6.00;;;3.13;;
6505;SDS011;3286;49.858;8.768;2022-09-29T04:25:39;5.50;;;3.53;;
6505;SDS011;3286;49.858;8.768;2022-09-29T04:28:08;7.80;;;3.27;;
6505;SDS011;3286;49.858;8.768;2022-09-29T04:30:35;6.50;;;3.77;;
6505;SDS011;3286;49.858;8.768;2022-09-29T04:33:02;4.80;;;3.70;;
6505;SDS011;3286;49.858;8.768;2022-09-29T04:35:29;7.10;;;3.57;;
6505;SDS011;3286;49.858;8.768;2022-09-29T04:37:56;5.77;;;3.37;;
6505;SDS011;3286;49.858;8.768;2022-09-29T04:40:23;4.87;;;3.27;;
6505;SDS011;3286;49.858;8.768;2022-09-29T04:42:50;6.33;;;3.37;;
6505;SDS011;3286;49.858;8.768;2022-09-29T04:45:17;4.40;;;3.30;;
6505;SDS011;3286;49.858;8.768;2022-09-29T04:47:43;4.20;;;3.17;;
6505;SDS011;3286;49.858;8.768;2022-09-29T04:50:11;5.53;;;3.20;;
6505;SDS011;3286;49.858;8.768;2022-09-29T04:52:40;4.63;;;2.80;;
6505;SDS011;3286;49.858;8.768;2022-09-29T04:55:12;3.47;;;3.07;;
6505;SDS011;3286;49.858;8.768;2022-09-29T04:57:41;4.90;;;3.40;;
6505;SDS011;3286;49.858;8.768;2022-09-29T05:00:09;4.90;;;3.17;;
6505;SDS011;3286;49.858;8.768;2022-09-29T05:02:37;4.60;;;3.20;;
6505;SDS011;3286;49.858;8.768;2022-09-29T05:05:07;4.40;;;3.30;;
6505;SDS011;3286;49.858;8.768;2022-09-29T05:07:37;5.57;;;3.57;;
6505;SDS011;3286;49.858;8.768;2022-09-29T05:10:05;9.17;;;3.73;;
6505;SDS011;3286;49.858;8.768;2022-09-29T05:12:33;8.73;;;4.20;;
6505;SDS011;3286;49.858;8.768;2022-09-29T05:15:00;7.83;;;3.70;;
6505;SDS011;3286;49.858;8.768;2022-09-29T05:17:26;3.43;;;2.97;;
6505;SDS011;3286;49.858;8.768;2022-09-29T05:19:53;4.93;;;3.47;;
6505;SDS011;3286;49.858;8.768;2022-09-29T05:22:19;3.83;;;3.10;;
6505;SDS011;3286;49.858;8.768;2022-09-29T05:24:50;4.87;;;3.70;;
6505;SDS011;3286;49.858;8.768;2022-09-29T05:27:16;11.93;;;5.50;;
6505;SDS011;3286;49.858;8.768;2022-09-29T05:29:43;11.70;;;5.37;;
6505;SDS011;3286;49.858;8.768;2022-09-29T05:32:10;6.07;;;4.30;;
6505;SDS011;3286;49.858;8.768;2022-09-29T05:34:37;5.37;;;3.77;;
6505;SDS011;3286;49.858;8.768;2022-09-29T05:37:04;5.33;;;3.60;;
6505;SDS011;3286;49.858;8.768;2022-09-29T05:39:36;6.20;;;3.33;;
6505;SDS011;3286;49.858;8.768;2022-09-29T05:42:10;8.87;;;3.03;;
6505;SDS011;3286;49.858;8.768;2022-09-29T05:44:37;5.03;;;3.47;;
6505;SDS011;3286;49.858;8.768;2022-09-29T05:47:03;10.10;;;3.97;;
6505;SDS011;3286;49.858;8.768;2022-09-29T05:49:30;8.77;;;3.73;;
6505;SDS011;3286;49.858;8.768;2022-09-29T05:51:57;6.87;;;3.30;;
6505;SDS011;3286;49.858;8.768;2022-09-29T05:54:28;4.17;;;3.13;;
6505;SDS011;3286;49.858;8.768;2022-09-29T05:56:54;5.73;;;3.47;;
6505;SDS011;3286;49.858;8.768;2022-09-29T05:59:22;4.43;;;3.33;;
6505;SDS011;3286;49.858;8.768;2022-09-29T06:01:51;7.67;;;4.40;;
6505;SDS011;3286;49.858;8.768;2022-09-29T06:04:22;8.20;;;4.27;;
6505;SDS011;3286;49.858;8.768;2022-09-29T06:06:53;5.83;;;4.30;;
6505;SDS011;3286;49.858;8.768;2022-09-29T06:09:21;8.57;;;4.20;;
6505;SDS011;3286;49.858;8.768;2022-09-29T06:11:50;10.47;;;4.73;;
6505;SDS011;3286;49.858;8.768;2022-09-29T06:14:17;11.17;;;5.60;;
6505;SDS011;3286;49.858;8.768;2022-09-29T06:16:45;19.20;;;5.93;;
6505;SDS011;3286;49.858;8.768;2022-09-29T06:19:11;16.87;;;7.17;;
6505;SDS011;3286;49.858;8.768;2022-09-29T06:21:38;14.23;;;7.43;;
6505;SDS011;3286;49.858;8.768;2022-09-29T06:24:05;15.63;;;7.90;;
6505;SDS011;3286;49.858;8.768;2022-09-29T06:26:35;17.17;;;7.30;;
6505;SDS011;3286;49.858;8.768;2022-09-29T06:29:04;41.47;;;10.03;;
6505;SDS011;3286;49.858;8.768;2022-09-29T06:31:31;18.77;;;10.17;;
6505;SDS011;3286;49.858;8.768;2022-09-29T06:34:00;31.37;;;7.67;;
6505;SDS011;3286;49.858;8.768;2022-09-29T06:36:31;12.50;;;6.30;;
6505;SDS011;3286;49.858;8.768;2022-09-29T06:39:21;32.00;;;7.57;;
6505;SDS011;3286;49.858;8.768;2022-09-29T06:41:47;17.10;;;6.43;;
6505;SDS011;3286;49.858;8.768;2022-09-29T06:44:17;28.57;;;8.97;;
6505;SDS011;3286;49.858;8.768;2022-09-29T06:46:44;15.53;;;6.83;;
6505;SDS011;3286;49.858;8.768;2022-09-29T06:49:13;20.63;;;7.10;;
6505;SDS011;3286;49.858;8.768;2022-09-29T06:51:40;19.27;;;7.40;;
6505;SDS011;3286;49.858;8.768;2022-09-29T06:54:10;38.33;;;8.03;;
6505;SDS011;3286;49.858;8.768;2022-09-29T06:56:39;17.07;;;6.80;;
6505;SDS011;3286;49.858;8.768;2022-09-29T06:59:06;13.13;;;6.33;;
6505;SDS011;3286;49.858;8.768;2022-09-29T07:01:33;20.87;;;7.20;;
6505;SDS011;3286;49.858;8.768;2022-09-29T07:04:00;17.20;;;6.40;;
6505;SDS011;3286;49.858;8.768;2022-09-29T07:06:28;18.37;;;6.70;;
6505;SDS011;3286;49.858;8.768;2022-09-29T07:08:58;13.73;;;6.30;;
6505;SDS011;3286;49.858;8.768;2022-09-29T07:11:25;29.13;;;7.83;;
6505;SDS011;3286;49.858;8.768;2022-09-29T07:13:52;17.43;;;6.53;;
6505;SDS011;3286;49.858;8.768;2022-09-29T07:16:20;22.10;;;6.60;;
6505;SDS011;3286;49.858;8.768;2022-09-29T07:18:48;15.60;;;6.37;;
6505;SDS011;3286;49.858;8.768;2022-09-29T07:21:15;14.73;;;5.90;;
6505;SDS011;3286;49.858;8.768;2022-09-29T07:23:44;8.37;;;6.03;;
6505;SDS011;3286;49.858;8.768;2022-09-29T07:26:14;11.10;;;7.23;;
6505;SDS011;3286;49.858;8.768;2022-09-29T07:28:41;9.80;;;6.97;;
6505;SDS011;3286;49.858;8.768;2022-09-29T07:31:11;12.23;;;7.13;;
6505;SDS011;3286;49.858;8.768;2022-09-29T07:33:41;8.37;;;5.90;;
6505;SDS011;3286;49.858;8.768;2022-09-29T07:36:08;9.63;;;6.57;;
6505;SDS011;3286;49.858;8.768;2022-09-29T07:38:35;10.10;;;6.00;;
6505;SDS011;3286;49.858;8.768;2022-09-29T07:41:04;10.67;;;6.70;;
6505;SDS011;3286;49.858;8.768;2022-09-29T07:43:32;11.80;;;6.93;;
6505;SDS011;3286;49.858;8.768;2022-09-29T07:45:59;10.57;;;7.00;;
6505;SDS011;3286;49.858;8.768;2022-09-29T07:48:26;7.97;;;6.03;;
6505;SDS011;3286;49.858;8.768;2022-09-29T07:51:05;8.83;;;7.03;;
6505;SDS011;3286;49.858;8.768;2022-09-29T07:53:37;8.90;;;6.30;;
6505;SDS011;3286;49.858;8.768;2022-09-29T07:56:06;8.57;;;6.43;;
6505;SDS011;3286;49.858;8.768;2022-09-29T07:58:34;13.30;;;7.57;;
6505;SDS011;3286;49.858;8.768;2022-09-29T08:01:03;10.77;;;7.37;;
6505;SDS011;3286;49.858;8.768;2022-09-29T08:03:30;12.33;;;7.60;;
6505;SDS011;3286;49.858;8.768;2022-09-29T08:05:59;13.87;;;7.97;;
6505;SDS011;3286;49.858;8.768;2022-09-29T08:08:25;11.87;;;7.87;;
6505;SDS011;3286;49.858;8.768;2022-09-29T08:10:59;14.07;;;7.87;;
6505;SDS011;3286;49.858;8.768;2022-09-29T08:13:29;10.03;;;6.77;;
6505;SDS011;3286;49.858;8.768;2022-09-29T08:15:57;12.47;;;7.47;;
6505;SDS011;3286;49.858;8.768;2022-09-29T08:18:24;14.60;;;7.70;;
6505;SDS011;3286;49.858;8.768;2022-09-29T08:20:58;12.90;;;7.83;;
6505;SDS011;3286;49.858;8.768;2022-09-29T08:23:24;13.43;;;7.83;;
6505;SDS011;3286;49.858;8.768;2022-09-29T08:25:58;10.33;;;7.73;;
6505;SDS011;3286;49.858;8.768;2022-09-29T08:28:32;14.47;;;8.20;;
6505;SDS011;3286;49.858;8.768;2022-09-29T08:31:03;13.33;;;8.10;;
6505;SDS011;3286;49.858;8.768;2022-09-29T08:33:33;12.67;;;8.97;;
6505;SDS011;3286;49.858;8.768;2022-09-29T08:36:01;11.67;;;7.90;;
6505;SDS011;3286;49.858;8.768;2022-09-29T08:38:30;12.10;;;8.27;;
6505;SDS011;3286;49.858;8.768;2022-09-29T08:41:09;13.80;;;9.23;;
6505;SDS011;3286;49.858;8.768;2022-09-29T08:43:50;21.13;;;9.60;;
6505;SDS011;3286;49.858;8.768;2022-09-29T08:46:22;13.67;;;9.37;;
6505;SDS011;3286;49.858;8.768;2022-09-29T08:48:53;14.77;;;9.13;;
6505;SDS011;3286;49.858;8.768;2022-09-29T08:51:26;13.67;;;9.63;;
6505;SDS011;3286;49.858;8.768;2022-09-29T08:53:59;14.50;;;9.27;;
6505;SDS011;3286;49.858;8.768;2022-09-29T08:56:33;13.73;;;9.70;;
6505;SDS011;3286;49.858;8.768;2022-09-29T08:59:02;14.50;;;9.90;;
6505;SDS011;3286;49.858;8.768;2022-09-29T09:01:29;18.20;;;9.27;;
6505;SDS011;3286;49.858;8.768;2022-09-29T09:07:00;13.13;;;9.70;;
6505;SDS011;3286;49.858;8.768;2022-09-29T09:09:44;13.40;;;9.23;;
6505;SDS011;3286;49.858;8.768;2022-09-29T09:12:31;20.17;;;10.03;;
6505;SDS011;3286;49.858;8.768;2022-09-29T09:15:39;16.27;;;10.27;;
6505;SDS011;3286;49.858;8.768;2022-09-29T09:18:22;21.93;;;9.90;;
6505;SDS011;3286;49.858;8.768;2022-09-29T09:21:00;15.40;;;9.67;;
6505;SDS011;3286;49.858;8.768;2022-09-29T09:23:33;17.40;;;10.33;;
6505;SDS011;3286;49.858;8.768;2022-09-29T09:26:14;13.63;;;9.60;;
6505;SDS011;3286;49.858;8.768;2022-09-29T09:28:41;13.67;;;9.63;;
6505;SDS011;3286;49.858;8.768;2022-09-29T09:31:17;14.87;;;10.17;;
6505;SDS011;3286;49.858;8.768;2022-09-29T09:33:50;13.13;;;9.67;;
6505;SDS011;3286;49.858;8.768;2022-09-29T09:36:24;13.20;;;9.63;;
6505;SDS011;3286;49.858;8.768;2022-09-29T09:38:59;14.57;;;10.27;;
6505;SDS011;3286;49.858;8.768;2022-09-29T09:41:30;12.47;;;9.43;;
6505;SDS011;3286;49.858;8.768;2022-09-29T09:44:01;13.77;;;9.37;;
6505;SDS011;3286;49.858;8.768;2022-09-29T09:46:39;13.77;;;9.50;;
6505;SDS011;3286;49.858;8.768;2022-09-29T09:49:16;12.93;;;8.90;;
6505;SDS011;3286;49.858;8.768;2022-09-29T09:51:48;16.67;;;8.60;;
6505;SDS011;3286;49.858;8.768;2022-09-29T09:54:23;13.50;;;9.30;;
6505;SDS011;3286;49.858;8.768;2022-09-29T09:57:06;13.33;;;8.87;;
6505;SDS011;3286;49.858;8.768;2022-09-29T09:59:52;12.20;;;8.30;;
6505;SDS011;3286;49.858;8.768;2022-09-29T10:02:29;13.63;;;8.20;;
6505;SDS011;3286;49.858;8.768;2022-09-29T10:04:58;10.60;;;7.83;;
6505;SDS011;3286;49.858;8.768;2022-09-29T10:07:26;11.23;;;7.73;;
6505;SDS011;3286;49.858;8.768;2022-09-29T10:09:54;11.57;;;7.67;;
6505;SDS011;3286;49.858;8.768;2022-09-29T10:12:24;36.27;;;11.47;;
6505;SDS011;3286;49.858;8.768;2022-09-29T10:14:52;14.40;;;8.00;;
6505;SDS011;3286;49.858;8.768;2022-09-29T10:17:24;9.07;;;7.20;;
6505;SDS011;3286;49.858;8.768;2022-09-29T10:19:58;10.75;;;7.32;;
6505;SDS011;3286;49.858;8.768;2022-09-29T10:22:30;9.52;;;7.40;;
6505;SDS011;3286;49.858;8.768;2022-09-29T10:25:04;8.98;;;6.93;;
6505;SDS011;3286;49.858;8.768;2022-09-29T10:27:33;9.80;;;7.07;;
6505;SDS011;3286;49.858;8.768;2022-09-29T10:30:15;9.73;;;7.28;;
6505;SDS011;3286;49.858;8.768;2022-09-29T10:32:44;9.38;;;7.35;;
6505;SDS011;3286;49.858;8.768;2022-09-29T10:35:19;8.65;;;7.07;;
6505;SDS011;3286;49.858;8.768;2022-09-29T10:37:56;9.43;;;6.82;;
6505;SDS011;3286;49.858;8.768;2022-09-29T10:40:26;8.90;;;6.87;;
6505;SDS011;3286;49.858;8.768;2022-09-29T10:42:55;12.95;;;7.45;;
6505;SDS011;3286;49.858;8.768;2022-09-29T10:45:25;8.90;;;6.68;;
6505;SDS011;3286;49.858;8.768;2022-09-29T10:48:06;8.07;;;6.97;;
6505;SDS011;3286;49.858;8.768;2022-09-29T10:50:48;11.23;;;6.70;;
6505;SDS011;3286;49.858;8.768;2022-09-29T10:53:18;10.03;;;6.17;;
6505;SDS011;3286;49.858;8.768;2022-09-29T10:55:50;7.35;;;5.88;;
6505;SDS011;3286;49.858;8.768;2022-09-29T10:58:23;9.18;;;5.88;;
6505;SDS011;3286;49.858;8.768;2022-09-29T11:01:01;11.48;;;6.00;;
6505;SDS011;3286;49.858;8.768;2022-09-29T11:03:32;7.65;;;5.82;;
6505;SDS011;3286;49.858;8.768;2022-09-29T11:06:04;10.07;;;5.78;;
6505;SDS011;3286;49.858;8.768;2022-09-29T11:11:21;8.52;;;5.40;;
6505;SDS011;3286;49.858;8.768;2022-09-29T11:13:50;9.65;;;5.13;;
6505;SDS011;3286;49.858;8.768;2022-09-29T11:16:18;7.85;;;5.35;;
6505;SDS011;3286;49.858;8.768;2022-09-29T11:18:51;6.50;;;4.72;;
6505;SDS011;3286;49.858;8.768;2022-09-29T11:24:19;7.95;;;4.80;;
6505;SDS011;3286;49.858;8.768;2022-09-29T11:26:56;7.68;;;5.22;;
6505;SDS011;3286;49.858;8.768;2022-09-29T11:29:31;5.88;;;4.35;;
6505;SDS011;3286;49.858;8.768;2022-09-29T11:32:16;11.93;;;5.03;;
6505;SDS011;3286;49.858;8.768;2022-09-29T11:34:57;5.68;;;4.95;;
6505;SDS011;3286;49.858;8.768;2022-09-29T11:37:50;6.53;;;4.80;;
6505;SDS011;3286;49.858;8.768;2022-09-29T11:40:39;6.57;;;5.00;;
6505;SDS011;3286;49.858;8.768;2022-09-29T11:43:22;5.32;;;4.70;;
6505;SDS011;3286;49.858;8.768;2022-09-29T11:46:04;7.90;;;5.13;;
6505;SDS011;3286;49.858;8.768;2022-09-29T11:48:47;9.95;;;5.55;;
6505;SDS011;3286;49.858;8.768;2022-09-29T11:51:33;6.75;;;4.78;;
6505;SDS011;3286;49.858;8.768;2022-09-29T11:54:29;8.85;;;5.70;;
6505;SDS011;3286;49.858;8.768;2022-09-29T11:57:16;8.80;;;6.03;;
6505;SDS011;3286;49.858;8.768;2022-09-29T11:59:56;9.83;;;5.97;;
6505;SDS011;3286;49.858;8.768;2022-09-29T12:02:41;7.22;;;5.28;;
6505;SDS011;3286;49.858;8.768;2022-09-29T12:05:28;6.95;;;5.43;;
6505;SDS011;3286;49.858;8.768;2022-09-29T12:08:11;10.35;;;5.93;;
6505;SDS011;3286;49.858;8.768;2022-09-29T12:10:51;7.20;;;5.30;;
6505;SDS011;3286;49.858;8.768;2022-09-29T12:13:27;9.48;;;5.75;;
6505;SDS011;3286;49.858;8.768;2022-09-29T12:16:06;10.60;;;6.47;;
6505;SDS011;3286;49.858;8.768;2022-09-29T12:18:36;8.15;;;5.55;;
6505;SDS011;3286;49.858;8.768;2022-09-29T12:21:07;7.50;;;5.22;;
6505;SDS011;3286;49.858;8.768;2022-09-29T12:23:37;9.25;;;5.55;;
6505;SDS011;3286;49.858;8.768;2022-09-29T12:26:12;7.28;;;4.97;;
6505;SDS011;3286;49.858;8.768;2022-09-29T12:28:44;10.48;;;5.03;;
6505;SDS011;3286;49.858;8.768;2022-09-29T12:31:19;6.65;;;5.03;;
6505;SDS011;3286;49.858;8.768;2022-09-29T12:33:49;7.20;;;5.53;;
6505;SDS011;3286;49.858;8.768;2022-09-29T12:36:23;8.93;;;5.63;;
6505;SDS011;3286;49.858;8.768;2022-09-29T12:39:23;10.93;;;5.32;;
6505;SDS011;3286;49.858;8.768;2022-09-29T12:42:02;9.25;;;5.53;;
6505;SDS011;3286;49.858;8.768;2022-09-29T12:44:41;12.23;;;6.50;;
6505;SDS011;3286;49.858;8.768;2022-09-29T12:47:12;8.73;;;5.68;;
6505;SDS011;3286;49.858;8.768;2022-09-29T12:49:48;8.30;;;5.93;;
6505;SDS011;3286;49.858;8.768;2022-09-29T12:52:28;8.75;;;5.82;;
6505;SDS011;3286;49.858;8.768;2022-09-29T12:54:59;7.47;;;5.60;;
6505;SDS011;3286;49.858;8.768;2022-09-29T12:57:42;7.50;;;4.95;;
6505;SDS011;3286;49.858;8.768;2022-09-29T13:00:15;7.88;;;5.25;;
6505;SDS011;3286;49.858;8.768;2022-09-29T13:02:49;7.85;;;5.47;;
6505;SDS011;3286;49.858;8.768;2022-09-29T13:05:42;9.27;;;5.90;;
6505;SDS011;3286;49.858;8.768;2022-09-29T13:08:24;9.13;;;5.47;;
6505;SDS011;3286;49.858;8.768;2022-09-29T13:11:20;8.20;;;5.25;;
6505;SDS011;3286;49.858;8.768;2022-09-29T13:14:09;7.30;;;5.10;;
6505;SDS011;3286;49.858;8.768;2022-09-29T13:16:52;9.73;;;5.20;;
6505;SDS011;3286;49.858;8.768;2022-09-29T13:19:43;7.18;;;5.57;;
6505;SDS011;3286;49.858;8.768;2022-09-29T13:22:28;10.05;;;4.80;;
6505;SDS011;3286;49.858;8.768;2022-09-29T13:25:14;6.15;;;4.82;;
6505;SDS011;3286;49.858;8.768;2022-09-29T13:27:48;8.10;;;4.60;;
6505;SDS011;3286;49.858;8.768;2022-09-29T13:30:19;9.60;;;4.47;;
6505;SDS011;3286;49.858;8.768;2022-09-29T13:32:50;8.30;;;4.97;;
6505;SDS011;3286;49.858;8.768;2022-09-29T13:35:30;8.05;;;4.72;;
6505;SDS011;3286;49.858;8.768;2022-09-29T13:38:05;14.52;;;4.55;;
6505;SDS011;3286;49.858;8.768;2022-09-29T13:40:34;9.50;;;5.40;;
6505;SDS011;3286;49.858;8.768;2022-09-29T13:43:03;8.68;;;4.72;;
6505;SDS011;3286;49.858;8.768;2022-09-29T13:45:39;9.80;;;5.25;;
6505;SDS011;3286;49.858;8.768;2022-09-29T13:51:21;8.37;;;5.13;;
6505;SDS011;3286;49.858;8.768;2022-09-29T13:56:48;8.43;;;4.43;;
6505;SDS011;3286;49.858;8.768;2022-09-29T13:59:17;6.78;;;4.05;;
6505;SDS011;3286;49.858;8.768;2022-09-29T14:01:53;9.00;;;4.67;;
6505;SDS011;3286;49.858;8.768;2022-09-29T14:04:32;6.70;;;4.47;;
6505;SDS011;3286;49.858;8.768;2022-09-29T14:07:00;9.43;;;4.63;;
6505;SDS011;3286;49.858;8.768;2022-09-29T14:09:29;7.38;;;4.13;;
6505;SDS011;3286;49.858;8.768;2022-09-29T14:12:02;7.03;;;4.28;;
6505;SDS011;3286;49.858;8.768;2022-09-29T14:14:35;6.78;;;4.30;;
6505;SDS011;3286;49.858;8.768;2022-09-29T14:17:06;7.07;;;4.53;;
6505;SDS011;3286;49.858;8.768;2022-09-29T14:19:44;7.90;;;4.43;;
6505;SDS011;3286;49.858;8.768;2022-09-29T14:25:29;8.27;;;3.53;;
6505;SDS011;3286;49.858;8.768;2022-09-29T14:28:16;5.18;;;3.88;;
6505;SDS011;3286;49.858;8.768;2022-09-29T14:30:59;6.35;;;4.05;;
6505;SDS011;3286;49.858;8.768;2022-09-29T14:33:46;5.70;;;4.07;;
6505;SDS011;3286;49.858;8.768;2022-09-29T14:36:17;7.20;;;4.28;;
6505;SDS011;3286;49.858;8.768;2022-09-29T14:38:48;7.70;;;4.22;;
6505;SDS011;3286;49.858;8.768;2022-09-29T14:41:25;25.05;;;7.82;;
6505;SDS011;3286;49.858;8.768;2022-09-29T14:43:56;7.25;;;4.30;;
6505;SDS011;3286;49.858;8.768;2022-09-29T14:49:49;9.20;;;4.28;;
6505;SDS011;3286;49.858;8.768;2022-09-29T14:52:57;7.82;;;3.92;;
6505;SDS011;3286;49.858;8.768;2022-09-29T14:55:37;5.75;;;4.10;;
6505;SDS011;3286;49.858;8.768;2022-09-29T14:58:22;7.85;;;3.90;;
6505;SDS011;3286;49.858;8.768;2022-09-29T15:01:02;6.25;;;4.20;;
6505;SDS011;3286;49.858;8.768;2022-09-29T15:03:35;6.50;;;3.90;;
6505;SDS011;3286;49.858;8.768;2022-09-29T15:06:11;5.22;;;3.45;;
6505;SDS011;3286;49.858;8.768;2022-09-29T15:08:39;21.63;;;6.10;;
6505;SDS011;3286;49.858;8.768;2022-09-29T15:11:26;8.10;;;3.80;;
6505;SDS011;3286;49.858;8.768;2022-09-29T15:13:55;5.10;;;3.50;;
6505;SDS011;3286;49.858;8.768;2022-09-29T15:16:31;17.98;;;4.90;;
6505;SDS011;3286;49.858;8.768;2022-09-29T15:19:20;32.95;;;9.23;;
6505;SDS011;3286;49.858;8.768;2022-09-29T15:21:58;6.35;;;3.95;;
6505;SDS011;3286;49.858;8.768;2022-09-29T15:24:42;4.57;;;3.40;;
6505;SDS011;3286;49.858;8.768;2022-09-29T15:27:32;6.10;;;3.75;;
6505;SDS011;3286;49.858;8.768;2022-09-29T15:30:00;5.55;;;3.78;;
6505;SDS011;3286;49.858;8.768;2022-09-29T15:32:28;6.30;;;3.45;;
6505;SDS011;3286;49.858;8.768;2022-09-29T15:35:00;4.75;;;3.25;;
6505;SDS011;3286;49.858;8.768;2022-09-29T15:37:36;7.95;;;3.72;;
6505;SDS011;3286;49.858;8.768;2022-09-29T15:40:24;7.03;;;3.60;;
6505;SDS011;3286;49.858;8.768;2022-09-29T15:42:52;5.80;;;3.85;;
6505;SDS011;3286;49.858;8.768;2022-09-29T15:45:22;6.18;;;3.92;;
6505;SDS011;3286;49.858;8.768;2022-09-29T15:47:59;7.30;;;4.07;;
6505;SDS011;3286;49.858;8.768;2022-09-29T15:50:27;6.03;;;4.05;;
6505;SDS011;3286;49.858;8.768;2022-09-29T15:53:01;7.38;;;4.03;;
6505;SDS011;3286;49.858;8.768;2022-09-29T15:55:29;5.57;;;3.83;;
6505;SDS011;3286;49.858;8.768;2022-09-29T15:58:02;6.45;;;4.15;;
6505;SDS011;3286;49.858;8.768;2022-09-29T16:01:01;5.72;;;3.85;;
6505;SDS011;3286;49.858;8.768;2022-09-29T16:03:33;6.07;;;4.10;;
6505;SDS011;3286;49.858;8.768;2022-09-29T16:06:05;11.35;;;4.68;;
6505;SDS011;3286;49.858;8.768;2022-09-29T16:08:44;7.43;;;4.25;;
6505;SDS011;3286;49.858;8.768;2022-09-29T16:11:19;6.72;;;3.67;;
6505;SDS011;3286;49.858;8.768;2022-09-29T16:13:51;3.97;;;2.63;;
6505;SDS011;3286;49.858;8.768;2022-09-29T16:16:27;5.53;;;2.88;;